Time;durP1;ratioP1;P1;durP2;ratioP2;P2;SDS_P1;SDS_P2;PMS_P1;PMS_P2;Temp;Humidity;BMP_temperature;BMP_pressure;BME280_temperature;BME280_humidity;BME280_pressure;Samples;Min_cycle;Max_cycle;Signal;HPM_P1;HPM_P2
2022/04/01 00:00:30;;;;;;;;;;;4.20;99.90;;;3.16;100.00;95196.09;5075099;28;19935;-83
2022/04/01 00:02:56;;;;;;;;;;;4.20;99.90;;;3.30;100.00;95222.41;5076679;28;20673;-84
2022/04/01 00:05:22;;;;;;;;;;;4.20;99.90;;;3.23;100.00;95214.03;5073344;28;19927;-83
2022/04/01 00:07:47;;;;;;;;;;;4.30;99.90;;;3.30;100.00;95217.19;5068726;28;19962;-84
2022/04/01 00:10:13;;;;;;;;;;;4.30;99.90;;;3.34;100.00;95225.72;5059575;28;19923;-83
2022/04/01 00:12:43;;;;;;;;;;;4.30;99.90;;;3.30;100.00;95226.78;5060153;28;20524;-84
2022/04/01 00:15:12;;;;;;;;;;;4.20;99.90;;;3.38;100.00;95237.72;5074999;28;20102;-84
2022/04/01 00:17:38;;;;;;;;;;;4.20;99.90;;;3.24;100.00;95225.28;5058518;28;20351;-84
2022/04/01 00:20:04;;;;;;;;;;;4.20;99.90;;;3.28;100.00;95229.44;5058252;28;19927;-84
2022/04/01 00:22:29;;;;;;;;;;;4.20;99.90;;;3.28;100.00;95226.00;5052318;28;20339;-84
2022/04/01 00:24:55;;;;;;;;;;;4.20;99.90;;;3.07;100.00;95189.56;5057578;28;19921;-84
2022/04/01 00:27:21;;;;;;;;;;;4.20;99.90;;;3.09;100.00;95200.75;5057085;28;19928;-84
2022/04/01 00:29:48;;;;;;;;;;;4.20;99.90;;;3.13;100.00;95210.09;5059054;28;19920;-84
2022/04/01 00:32:14;;;;;;;;;;;4.20;99.90;;;3.34;100.00;95229.19;5054189;28;20390;-83
2022/04/01 00:34:40;;;;;;;;;;;4.20;99.90;;;3.40;100.00;95231.53;5058855;28;19935;-84
2022/04/01 00:37:06;;;;;;;;;;;4.30;99.90;;;3.34;100.00;95221.38;5060949;28;20129;-85
2022/04/01 00:39:32;;;;;;;;;;;4.30;99.90;;;3.40;100.00;95239.34;5059561;28;19979;-83
2022/04/01 00:42:00;;;;;;;;;;;4.30;99.90;;;3.24;100.00;95218.31;5060183;28;20262;-84
2022/04/01 00:44:31;;;;;;;;;;;4.20;99.90;;;3.27;100.00;95214.75;5058092;28;19920;-84
2022/04/01 00:46:59;;;;;;;;;;;4.20;99.90;;;3.20;100.00;95203.72;5044405;28;19923;-83
2022/04/01 00:49:29;;;;;;;;;;;4.20;99.90;;;3.28;100.00;95226.00;5052942;28;19930;-83
2022/04/01 00:52:00;;;;;;;;;;;4.30;99.90;;;3.23;100.00;95219.22;5045949;28;20013;-84
2022/04/01 00:54:26;;;;;;;;;;;4.20;99.90;;;3.22;100.00;95220.13;5055694;28;19935;-84
2022/04/01 00:56:52;;;;;;;;;;;4.20;99.90;;;3.34;100.00;95238.75;5058631;28;19934;-84
2022/04/01 00:59:17;;;;;;;;;;;4.20;99.90;;;3.11;100.00;95213.72;5061186;28;20547;-84
2022/04/01 01:01:43;;;;;;;;;;;4.10;99.90;;;3.31;100.00;95242.34;5072048;28;19946;-84
2022/04/01 01:04:13;;;;;;;;;;;4.10;99.90;;;2.93;100.00;95192.72;5057466;28;19962;-84
2022/04/01 01:06:42;;;;;;;;;;;4.10;99.90;;;2.99;100.00;95204.66;5043284;28;19946;-84
2022/04/01 01:09:08;;;;;;;;;;;4.10;99.90;;;2.89;100.00;95193.78;5041471;28;20028;-83
2022/04/01 01:11:35;;;;;;;;;;;4.00;99.90;;;2.93;100.00;95197.09;5062542;28;19951;-83
2022/04/01 01:14:08;;;;;;;;;;;4.00;99.90;;;3.18;100.00;95239.41;5035501;28;20381;-83
2022/04/01 01:16:35;;;;;;;;;;;4.00;99.90;;;2.93;100.00;95210.97;5052502;28;19955;-84
2022/04/01 01:19:16;;;;;;;;;;;3.90;99.90;;;3.09;100.00;95236.34;5076630;28;19924;-82
2022/04/01 01:21:43;;;;;;;;;;;4.00;99.90;;;2.60;100.00;95153.34;5054534;28;19961;-84
2022/04/01 01:24:17;;;;;;;;;;;3.90;99.90;;;3.09;100.00;95239.81;5034581;28;20308;-83
2022/04/01 01:26:53;;;;;;;;;;;3.90;99.90;;;2.94;100.00;95217.00;5039902;28;19951;-83
2022/04/01 01:29:23;;;;;;;;;;;3.90;99.90;;;2.86;100.00;95186.94;5045310;28;20018;-84
2022/04/01 01:31:49;;;;;;;;;;;3.90;99.90;;;2.61;100.00;95165.44;5044510;28;19920;-82
2022/04/01 01:34:16;;;;;;;;;;;3.90;99.90;;;2.90;100.00;95215.44;5048502;28;20305;-84
2022/04/01 01:36:41;;;;;;;;;;;3.90;99.90;;;2.84;100.00;95212.19;5053781;28;19924;-83
2022/04/01 01:39:07;;;;;;;;;;;3.90;99.90;;;2.53;100.00;95168.38;5056718;28;19990;-83
2022/04/01 01:41:33;;;;;;;;;;;3.90;99.90;;;2.87;100.00;95216.41;5067784;28;19924;-83
2022/04/01 01:43:59;;;;;;;;;;;3.80;99.90;;;2.92;100.00;95226.63;5045314;28;20393;-84
2022/04/01 01:46:24;;;;;;;;;;;3.80;99.90;;;2.73;100.00;95206.59;5072280;28;19963;-84
2022/04/01 01:48:50;;;;;;;;;;;3.80;99.90;;;2.54;100.00;95187.44;5052413;28;19931;-83
2022/04/01 01:56:44;;;;;;;;;;;3.70;99.90;;;2.51;100.00;95177.13;5058893;28;19998;-83
2022/04/01 01:59:11;;;;;;;;;;;3.70;99.90;;;2.62;100.00;95191.41;5059720;28;19920;-84
2022/04/01 02:01:38;;;;;;;;;;;3.70;99.90;;;2.74;100.00;95208.25;5054275;28;20334;-83
2022/04/01 02:04:04;;;;;;;;;;;3.70;99.90;;;2.19;100.00;95120.31;5042742;28;19924;-83
2022/04/01 02:06:30;;;;;;;;;;;3.70;99.90;;;2.66;100.00;95208.59;5039616;28;19923;-83
2022/04/01 02:08:55;;;;;;;;;;;3.70;99.90;;;2.45;100.00;95173.88;5036039;28;20048;-83
2022/04/01 02:11:21;;;;;;;;;;;3.70;99.90;;;2.80;100.00;95221.03;5052650;28;20379;-84
2022/04/01 02:13:48;;;;;;;;;;;3.70;99.90;;;2.62;100.00;95193.16;5061689;28;19923;-84
2022/04/01 02:16:14;;;;;;;;;;;3.70;99.90;;;2.57;100.00;95190.75;5043646;28;20184;-83
2022/04/01 02:18:41;;;;;;;;;;;3.70;99.90;;;2.40;100.00;95164.56;5078395;28;19927;-84
2022/04/01 02:21:10;;;;;;;;;;;3.60;99.90;;;2.43;100.00;95174.84;5052410;28;19959;-84
2022/04/01 02:23:38;;;;;;;;;;;3.60;99.90;;;2.76;100.00;95219.44;5062772;28;19924;-84
2022/04/01 02:26:04;;;;;;;;;;;3.60;99.90;;;2.56;100.00;95191.66;5060215;28;19925;-83
2022/04/01 02:28:29;;;;;;;;;;;3.60;99.90;;;2.59;100.00;95195.91;5078368;28;19923;-84
2022/04/01 02:30:55;;;;;;;;;;;3.60;99.90;;;2.68;100.00;95211.13;5046348;28;19931;-84
2022/04/01 02:33:20;;;;;;;;;;;3.60;99.90;;;2.54;100.00;95180.47;5055966;28;19924;-83
2022/04/01 02:35:46;;;;;;;;;;;3.70;99.90;;;2.55;100.00;95189.97;5078387;28;19954;-83
2022/04/01 02:38:12;;;;;;;;;;;3.60;99.90;;;2.35;100.00;95172.56;5045489;28;19982;-84
2022/04/01 02:40:37;;;;;;;;;;;3.60;99.90;;;2.55;100.00;95189.97;5056860;28;20012;-83
2022/04/01 02:43:03;;;;;;;;;;;3.60;99.90;;;2.26;100.00;95157.31;5055601;28;19922;-83
2022/04/01 02:45:29;;;;;;;;;;;3.60;99.90;;;2.40;100.00;95183.59;5042663;28;19994;-83
2022/04/01 02:47:55;;;;;;;;;;;3.60;99.90;;;2.45;100.00;95193.84;5059342;28;19982;-84
2022/04/01 02:50:21;;;;;;;;;;;3.60;99.90;;;2.55;100.00;95208.19;5044851;28;20614;-84
2022/04/01 02:52:47;;;;;;;;;;;3.50;99.90;;;2.50;100.00;95201.47;5070749;28;19924;-83
2022/04/01 02:55:12;;;;;;;;;;;3.60;99.90;;;2.45;100.00;95204.25;5072438;28;20432;-84
2022/04/01 02:57:38;;;;;;;;;;;3.50;99.90;;;2.59;100.00;95207.13;5057880;28;19973;-83
2022/04/01 03:00:09;;;;;;;;;;;3.60;99.90;;;2.54;100.00;95208.25;5062528;28;20305;-84
2022/04/01 03:02:38;;;;;;;;;;;3.60;99.90;;;2.52;100.00;95212.66;5062208;28;19924;-84
2022/04/01 03:05:07;;;;;;;;;;;3.60;99.90;;;2.40;100.00;95187.97;5076909;28;19939;-84
2022/04/01 03:07:33;;;;;;;;;;;3.50;99.90;;;2.31;100.00;95165.78;5075417;28;20037;-84
2022/04/01 03:09:58;;;;;;;;;;;3.50;99.90;;;2.58;100.00;95202.84;5057471;28;19928;-83
2022/04/01 03:12:25;;;;;;;;;;;3.60;99.90;;;2.70;100.00;95240.53;5043999;28;19981;-83
2022/04/01 03:14:51;;;;;;;;;;;3.60;99.90;;;2.50;100.00;95215.31;5060350;28;19971;-83
2022/04/01 03:17:17;;;;;;;;;;;3.60;99.90;;;2.50;100.00;95212.72;5057991;28;19990;-83
2022/04/01 03:19:44;;;;;;;;;;;3.60;99.90;;;2.65;100.00;95224.25;5073898;28;19919;-84
2022/04/01 03:22:09;;;;;;;;;;;3.50;99.90;;;2.58;100.00;95220.22;5079648;28;20511;-83
2022/04/01 03:24:35;;;;;;;;;;;3.50;99.90;;;2.43;100.00;95203.47;5056978;28;19920;-84
2022/04/01 03:27:01;;;;;;;;;;;3.60;99.90;;;2.46;100.00;95217.19;5073077;28;19924;-83
2022/04/01 03:29:28;;;;;;;;;;;3.50;99.90;;;2.13;100.00;95150.91;5052176;28;20441;-82
2022/04/01 03:31:54;;;;;;;;;;;3.50;99.90;;;2.56;100.00;95228.06;5072471;28;19934;-83
2022/04/01 03:34:20;;;;;;;;;;;3.50;99.90;;;2.38;100.00;95210.59;5066718;28;20235;-83
2022/04/01 03:36:45;;;;;;;;;;;3.50;99.90;;;2.65;100.00;95245.91;5052088;28;20396;-84
2022/04/01 03:39:12;;;;;;;;;;;3.50;99.90;;;2.42;100.00;95204.38;5049148;28;20148;-83
2022/04/01 03:41:38;;;;;;;;;;;3.50;99.90;;;2.50;100.00;95211.88;5068199;28;19920;-84
2022/04/01 03:44:04;;;;;;;;;;;3.50;99.90;;;2.57;100.00;95226.34;5051588;28;19920;-84
2022/04/01 03:46:47;;;;;;;;;;;3.60;99.90;;;2.52;100.00;95220.47;5048679;28;20458;-83
2022/04/01 03:49:23;;;;;;;;;;;3.60;99.90;;;2.52;100.00;95216.09;5038230;28;19963;-84
2022/04/01 03:51:50;;;;;;;;;;;3.70;99.90;;;2.60;100.00;95228.78;5055380;28;19927;-85
2022/04/01 03:54:17;;;;;;;;;;;3.60;99.90;;;2.66;100.00;95239.81;5058328;28;20489;-83
2022/04/01 03:56:45;;;;;;;;;;;3.60;99.90;;;2.48;100.00;95210.19;5060955;28;20070;-84
2022/04/01 03:59:13;;;;;;;;;;;3.60;99.90;;;2.80;100.00;95254.00;5058658;28;20412;-84
2022/04/01 04:01:39;;;;;;;;;;;3.60;99.90;;;2.60;100.00;95231.41;5055254;28;19924;-84
2022/04/01 04:04:05;;;;;;;;;;;3.60;99.90;;;2.53;100.00;95223.00;5055375;28;20298;-84
2022/04/01 04:06:34;;;;;;;;;;;3.60;99.90;;;2.60;100.00;95219.25;5051682;28;20192;-83
2022/04/01 04:09:01;;;;;;;;;;;3.60;99.90;;;2.28;100.00;95197.97;5066485;28;19939;-84
2022/04/01 04:11:29;;;;;;;;;;;3.60;99.90;;;2.41;100.00;95205.28;5045948;28;19927;-84
2022/04/01 04:13:56;;;;;;;;;;;3.60;99.90;;;2.40;100.00;95222.63;5070634;28;19923;-84
2022/04/01 04:16:25;;;;;;;;;;;3.50;99.90;;;2.61;100.00;95257.38;5041008;28;20351;-84
2022/04/01 04:19:03;;;;;;;;;;;3.50;99.90;;;2.38;100.00;95237.44;5074821;28;20373;-83
2022/04/01 04:21:31;;;;;;;;;;;3.50;99.90;;;2.29;100.00;95227.41;5049970;28;20280;-84
2022/04/01 04:23:58;;;;;;;;;;;3.50;99.90;;;2.47;100.00;95242.28;5043534;28;19969;-84
2022/04/01 04:26:39;;;;;;;;;;;3.40;99.90;;;2.33;100.00;95225.53;5043601;28;19924;-84
2022/04/01 04:29:04;;;;;;;;;;;3.40;99.90;;;2.55;100.00;95265.44;5063922;28;19976;-84
2022/04/01 04:31:34;;;;;;;;;;;3.40;99.90;;;2.38;100.00;95247.84;5064778;28;20358;-84
2022/04/01 04:34:03;;;;;;;;;;;3.40;99.90;;;2.30;100.00;95236.94;5061364;28;19931;-84
2022/04/01 04:36:40;;;;;;;;;;;3.40;99.90;;;2.42;100.00;95264.19;5063827;28;19926;-83
2022/04/01 04:39:08;;;;;;;;;;;3.30;99.90;;;2.36;100.00;95265.28;5070956;28;19931;-84
2022/04/01 04:41:34;;;;;;;;;;;3.30;99.90;;;2.27;100.00;95260.44;5052150;28;19924;-84
2022/04/01 04:44:00;;;;;;;;;;;3.30;99.90;;;2.18;100.00;95259.03;5088293;28;19961;-84
2022/04/01 04:46:27;;;;;;;;;;;3.20;99.90;;;2.31;100.00;95275.00;5083794;28;19946;-84
2022/04/01 04:48:54;;;;;;;;;;;3.20;99.90;;;2.25;100.00;95262.25;5069256;28;19916;-84
2022/04/01 04:51:24;;;;;;;;;;;3.20;99.90;;;2.26;100.00;95246.59;5072090;28;19945;-84
2022/04/01 04:53:50;;;;;;;;;;;3.30;99.90;;;2.22;100.00;95249.38;5073940;28;20101;-84
2022/04/01 04:56:18;;;;;;;;;;;3.30;99.90;;;2.16;100.00;95245.25;5075055;28;19916;-84
2022/04/01 04:58:44;;;;;;;;;;;3.30;99.90;;;1.94;100.00;95213.16;5073068;28;19923;-84
2022/04/01 05:01:27;;;;;;;;;;;3.30;99.90;;;2.35;100.00;95280.94;5063358;28;20195;-85
2022/04/01 05:03:59;;;;;;;;;;;3.30;99.90;;;2.19;100.00;95260.75;5052512;28;19947;-84
2022/04/01 05:06:30;;;;;;;;;;;3.20;99.90;;;2.13;100.00;95254.91;5087675;28;19968;-84
2022/04/01 05:09:00;;;;;;;;;;;3.20;99.90;;;2.03;100.00;95260.47;5055761;28;19927;-84
2022/04/01 05:11:50;;;;;;;;;;;3.20;99.90;;;2.21;100.00;95291.91;5069440;28;20863;-84
2022/04/01 05:14:54;;;;;;;;;;;3.10;99.90;;;1.99;100.00;95284.91;5069326;28;19924;-84
2022/04/01 05:17:27;;;;;;;;;;;3.10;99.90;;;2.03;100.00;95275.25;5083785;28;20331;-82
2022/04/01 05:19:58;;;;;;;;;;;3.10;99.90;;;2.01;100.00;95293.47;5058629;28;20350;-84
2022/04/01 05:22:34;;;;;;;;;;;3.00;99.90;;;1.96;100.00;95300.59;5053598;28;20366;-83
2022/04/01 05:25:02;;;;;;;;;;;3.00;99.90;;;2.03;100.00;95311.63;5070936;28;20373;-83
2022/04/01 05:27:40;;;;;;;;;;;2.90;99.90;;;1.78;100.00;95280.50;5069553;28;19933;-84
2022/04/01 05:30:14;;;;;;;;;;;2.90;99.90;;;1.78;100.00;95289.13;5083647;28;19935;-84
2022/04/01 05:32:41;;;;;;;;;;;2.90;99.90;;;1.70;100.00;95272.94;5062298;28;19931;-85
2022/04/01 05:35:07;;;;;;;;;;;2.90;99.90;;;1.86;100.00;95294.03;5063189;28;20585;-84
2022/04/01 05:37:34;;;;;;;;;;;2.90;99.90;;;2.04;100.00;95323.72;5049573;28;20387;-84
2022/04/01 05:40:07;;;;;;;;;;;2.90;99.90;;;1.93;100.00;95297.25;5068318;28;19920;-83
2022/04/01 05:42:33;;;;;;;;;;;2.90;99.90;;;2.00;100.00;95324.72;5070626;28;19912;-84
2022/04/01 05:45:00;;;;;;;;;;;2.90;99.90;;;1.83;100.00;95314.94;5048429;28;20012;-84
2022/04/01 05:47:30;;;;;;;;;;;2.90;99.90;;;1.76;100.00;95308.25;5063908;28;19916;-84
2022/04/01 05:49:59;;;;;;;;;;;2.80;99.90;;;1.50;100.00;95277.09;5072630;28;19973;-83
2022/04/01 05:52:25;;;;;;;;;;;2.80;99.90;;;1.37;100.00;95257.66;5088899;28;20006;-83
2022/04/01 05:54:51;;;;;;;;;;;2.80;99.90;;;1.77;100.00;95331.59;5065910;28;19946;-84
2022/04/01 05:57:18;;;;;;;;;;;2.80;99.90;;;1.11;100.00;95238.66;5091759;28;19935;-83
2022/04/01 05:59:44;;;;;;;;;;;2.80;99.90;;;1.47;100.00;95310.13;5063805;28;19981;-84
2022/04/01 06:02:49;;;;;;;;;;;2.70;99.90;;;1.83;100.00;95349.59;5076211;28;19984;-84
2022/04/01 06:05:41;;;;;;;;;;;2.70;99.90;;;1.53;100.00;95296.94;5085544;28;19970;-84
2022/04/01 06:08:27;;;;;;;;;;;2.70;99.90;;;1.77;100.00;95346.34;5070634;28;20447;-84
2022/04/01 06:10:56;;;;;;;;;;;2.80;99.90;;;1.77;100.00;95346.34;5072658;28;20276;-83
2022/04/01 06:13:30;;;;;;;;;;;2.80;99.90;;;1.82;100.00;95349.63;5076280;28;19923;-83
2022/04/01 06:16:05;;;;;;;;;;;2.70;99.90;;;1.61;100.00;95313.09;5094306;28;19931;-83
2022/04/01 06:19:07;;;;;;;;;;;2.80;99.90;;;1.83;100.00;95359.13;5091628;28;20019;-83
2022/04/01 06:21:38;;;;;;;;;;;2.80;99.90;;;1.77;100.00;95349.78;5087664;28;19940;-84
2022/04/01 06:24:10;;;;;;;;;;;2.70;99.90;;;1.71;100.00;95344.81;5074579;28;19962;-83
2022/04/01 06:26:43;;;;;;;;;;;2.70;99.90;;;1.71;100.00;95343.06;5056578;28;19977;-84
2022/04/01 06:30:05;;;;;;;;;;;2.70;99.90;;;1.89;100.00;95364.13;5058937;28;19956;-84
2022/04/01 06:32:45;;;;;;;;;;;2.80;99.90;;;1.81;100.00;95368.72;4961305;28;19925;-83
2022/04/01 06:35:18;;;;;;;;;;;2.80;99.90;;;1.59;100.00;95340.03;5057936;28;19920;-84
2022/04/01 06:38:01;;;;;;;;;;;2.70;99.90;;;1.71;100.00;95357.81;5075692;28;20432;-83
2022/04/01 06:40:29;;;;;;;;;;;2.70;99.90;;;1.38;100.00;95326.03;5077480;28;19940;-84
2022/04/01 06:42:56;;;;;;;;;;;2.70;99.90;;;1.64;100.00;95356.31;5078107;28;19927;-83
2022/04/01 06:45:22;;;;;;;;;;;2.70;99.90;;;1.43;100.00;95331.91;5057716;28;19920;-83
2022/04/01 06:47:48;;;;;;;;;;;2.70;99.90;;;1.37;100.00;95304.41;5060559;28;20266;-84
2022/04/01 06:50:14;;;;;;;;;;;2.70;99.90;;;1.45;100.00;95327.53;5071493;28;20405;-84
2022/04/01 06:52:40;;;;;;;;;;;2.70;99.90;;;1.52;100.00;95344.59;5057362;28;20452;-84
2022/04/01 06:55:08;;;;;;;;;;;2.70;99.90;;;1.80;100.00;95382.63;5070665;28;19958;-84
2022/04/01 06:57:34;;;;;;;;;;;2.70;99.90;;;1.61;100.00;95348.63;5049442;28;19924;-85
2022/04/01 07:00:00;;;;;;;;;;;2.70;99.90;;;1.84;100.00;95384.22;5067662;28;20592;-83
2022/04/01 07:02:25;;;;;;;;;;;2.80;99.90;;;1.69;100.00;95370.84;5069880;28;19932;-83
2022/04/01 07:04:51;;;;;;;;;;;2.80;99.90;;;1.56;100.00;95355.72;5064668;28;19916;-84
2022/04/01 07:07:17;;;;;;;;;;;2.80;99.90;;;1.61;100.00;95357.25;5069839;28;19916;-83
2022/04/01 07:09:43;;;;;;;;;;;2.80;99.90;;;1.56;100.00;95347.94;5052814;28;19923;-85
2022/04/01 07:12:09;;;;;;;;;;;2.70;99.90;;;1.68;100.00;95360.50;5088157;28;20274;-84
2022/04/01 07:14:35;;;;;;;;;;;2.70;99.90;;;1.56;100.00;95348.78;5058816;28;19951;-83
2022/04/01 07:17:01;;;;;;;;;;;2.70;99.90;;;1.82;100.00;95392.06;5075853;28;19924;-83
2022/04/01 07:19:27;;;;;;;;;;;2.80;99.90;;;1.64;100.00;95380.53;5068526;28;20038;-84
2022/04/01 07:21:53;;;;;;;;;;;2.70;99.90;;;1.61;100.00;95367.66;5050810;28;19928;-83
2022/04/01 07:24:18;;;;;;;;;;;2.70;99.90;;;1.48;100.00;95351.63;5062629;28;19916;-84
2022/04/01 07:26:45;;;;;;;;;;;2.70;99.90;;;1.82;100.00;95375.63;5064780;28;19963;-84
2022/04/01 07:29:11;;;;;;;;;;;2.70;99.90;;;1.84;100.00;95390.25;5066701;28;19921;-83
2022/04/01 07:34:31;;;;;;;;;;;2.80;99.90;;;1.60;100.00;95359.91;5082763;28;19931;-84
2022/04/01 07:36:57;;;;;;;;;;;2.80;99.90;;;1.61;100.00;95359.03;5048174;28;19968;-84
2022/04/01 07:39:23;;;;;;;;;;;2.80;99.90;;;1.48;100.00;95320.47;5063115;28;19924;-84
2022/04/01 07:41:48;;;;;;;;;;;2.80;99.90;;;1.69;100.00;95376.03;5069587;28;20017;-84
2022/04/01 07:44:14;;;;;;;;;;;2.80;99.90;;;1.68;100.00;95396.88;5068798;28;19919;-85
2022/04/01 07:46:41;;;;;;;;;;;2.80;99.90;;;1.40;100.00;95337.22;5083414;28;19919;-82
2022/04/01 07:49:06;;;;;;;;;;;2.80;99.90;;;1.35;100.00;95337.38;5063142;28;19924;-83
2022/04/01 07:51:32;;;;;;;;;;;2.70;99.90;;;1.28;100.00;95328.09;5059695;28;20369;-84
2022/04/01 07:53:58;;;;;;;;;;;2.70;99.90;;;1.44;100.00;95355.25;5047518;28;20308;-83
2022/04/01 07:56:30;;;;;;;;;;;2.70;99.90;;;1.66;100.00;95391.72;5049502;28;19923;-84
2022/04/01 07:58:59;;;;;;;;;;;2.70;99.90;;;1.61;100.00;95383.25;5066437;28;20419;-83
2022/04/01 08:01:25;;;;;;;;;;;2.70;99.90;;;1.91;100.00;95401.28;5064031;28;21172;-84
2022/04/01 08:03:51;;;;;;;;;;;2.80;99.90;;;1.51;100.00;95361.09;5085216;28;19928;-84
2022/04/01 08:06:16;;;;;;;;;;;2.90;99.90;;;1.90;100.00;95386.59;5056578;28;20018;-84
2022/04/01 08:08:42;;;;;;;;;;;2.90;99.90;;;1.66;100.00;95344.97;5054782;28;19926;-84
2022/04/01 08:11:07;;;;;;;;;;;3.00;99.90;;;1.90;100.00;95395.25;5053855;28;20298;-84
2022/04/01 08:13:33;;;;;;;;;;;3.00;99.90;;;1.96;100.00;95399.38;5058429;28;19946;-85
2022/04/01 08:16:00;;;;;;;;;;;3.00;99.90;;;1.76;100.00;95370.63;5071843;28;19973;-83
2022/04/01 08:18:26;;;;;;;;;;;3.00;99.90;;;1.82;100.00;95388.63;5057731;28;19920;-84
2022/04/01 08:20:52;;;;;;;;;;;3.00;99.90;;;1.90;100.00;95417.78;5053495;28;19931;-84
2022/04/01 08:23:19;;;;;;;;;;;3.00;99.90;;;1.99;100.00;95430.47;5089995;28;19923;-84
2022/04/01 08:25:46;;;;;;;;;;;3.00;99.90;;;1.56;100.00;95372.16;5055367;28;19935;-84
2022/04/01 08:28:12;;;;;;;;;;;2.90;99.90;;;1.82;100.00;95417.22;5062109;28;19991;-84
2022/04/01 08:30:38;;;;;;;;;;;2.90;99.90;;;1.71;100.00;95401.97;5084294;28;19920;-84
2022/04/01 08:33:04;;;;;;;;;;;2.90;99.90;;;1.79;100.00;95433.75;5066271;28;19931;-84
2022/04/01 08:35:31;;;;;;;;;;;2.90;99.90;;;1.94;100.00;95437.59;5047549;28;20254;-83
2022/04/01 08:37:58;;;;;;;;;;;2.90;99.90;;;1.82;100.00;95420.66;5071839;28;19951;-84
2022/04/01 08:40:24;;;;;;;;;;;2.90;99.90;;;2.08;100.00;95448.34;5086293;28;19986;-84
2022/04/01 08:42:50;;;;;;;;;;;3.00;99.90;;;1.78;100.00;95413.03;5080574;28;20397;-84
2022/04/01 08:45:19;;;;;;;;;;;3.00;99.90;;;1.66;100.00;95402.13;5065380;28;19924;-84
2022/04/01 08:47:45;;;;;;;;;;;3.00;99.90;;;1.79;100.00;95431.13;5062645;28;19927;-84
2022/04/01 08:50:11;;;;;;;;;;;2.90;99.90;;;1.63;100.00;95399.63;5046481;28;19916;-84
2022/04/01 08:52:37;;;;;;;;;;;2.90;99.90;;;1.82;100.00;95443.19;5086055;28;19986;-84
2022/04/01 08:55:09;;;;;;;;;;;2.90;99.90;;;1.88;100.00;95479.38;5054950;28;19923;-83
2022/04/01 08:57:39;;;;;;;;;;;2.90;99.90;;;1.67;100.00;95447.13;5048885;28;20435;-83
2022/04/01 09:00:13;;;;;;;;;;;2.80;99.90;;;1.91;100.00;95468.88;5058552;28;20306;-83
2022/04/01 09:02:43;;;;;;;;;;;2.80;99.90;;;1.97;100.00;95467.81;5076720;28;20996;-83
2022/04/01 09:05:09;;;;;;;;;;;2.90;99.90;;;1.94;100.00;95463.56;5063175;28;19925;-83
2022/04/01 09:07:35;;;;;;;;;;;2.90;99.90;;;1.73;100.00;95436.56;5049941;28;20284;-83
2022/04/01 09:10:03;;;;;;;;;;;2.90;99.90;;;1.71;100.00;95431.41;5054584;28;19919;-83
2022/04/01 09:12:29;;;;;;;;;;;3.00;99.90;;;1.66;100.00;95442.84;5069839;22;19931;-48
2022/04/01 09:14:55;;;;;;;;;;;2.90;99.90;;;1.95;100.00;95482.63;5067544;28;19932;-48
2022/04/01 09:17:22;;;;;;;;;;;2.90;99.90;;;1.93;100.00;95480.06;5071053;28;19946;-48
2022/04/01 09:19:49;;;;;;;;;;;2.90;99.90;;;1.86;100.00;95487.22;5070405;28;19931;-45
2022/04/01 09:22:23;;;;;;;;;;;2.90;99.90;;;1.86;100.00;95492.41;5072290;28;19928;-50
2022/04/01 09:25:15;;;;;;;;;;;2.90;99.90;;;1.82;100.00;95490.81;5052573;28;20335;-49
2022/04/01 09:30:16;;;;;;;;;;;2.80;99.90;;;1.89;100.00;95499.28;5054641;28;19962;-82
2022/04/01 09:32:46;;;;;;;;;;;2.80;99.90;;;1.84;100.00;95485.56;5048569;28;20012;-82
2022/04/01 09:35:13;;;;;;;;;;;2.90;99.90;;;1.82;100.00;95487.38;5038830;28;19921;-82
2022/04/01 09:37:45;;;;;;;;;;;2.80;99.90;;;1.84;100.00;95499.41;5057925;28;19930;-82
2022/04/01 09:40:13;;;;;;;;;;;2.80;99.90;;;1.66;100.00;95471.44;5043965;28;19931;-83
2022/04/01 09:42:45;;;;;;;;;;;2.80;99.90;;;1.87;100.00;95498.47;5057811;28;19932;-81
2022/04/01 09:45:15;;;;;;;;;;;2.80;99.90;;;1.84;100.00;95491.63;5053916;28;19940;-82
2022/04/01 09:47:40;;;;;;;;;;;2.90;99.90;;;1.87;100.00;95506.28;5057730;28;21391;-82
2022/04/01 09:50:11;;;;;;;;;;;2.90;99.90;;;1.86;100.00;95513.19;5036318;28;20153;-82
2022/04/01 09:52:37;;;;;;;;;;;2.90;99.90;;;2.02;100.00;95510.94;5035932;28;19955;-82
2022/04/01 09:55:03;;;;;;;;;;;2.90;99.90;;;2.08;100.00;95517.69;5037573;28;20275;-82
2022/04/01 09:57:29;;;;;;;;;;;2.90;99.90;;;1.90;100.00;95507.03;5052162;28;19999;-82
2022/04/01 09:59:55;;;;;;;;;;;2.90;99.90;;;1.89;100.00;95520.91;5050066;28;20332;-82
2022/04/01 10:02:21;;;;;;;;;;;2.90;99.90;;;1.79;100.00;95516.91;5032730;28;19924;-82
2022/04/01 10:04:47;;;;;;;;;;;2.80;99.90;;;1.73;100.00;95527.50;5051002;28;19925;-82
2022/04/01 10:07:20;;;;;;;;;;;2.70;99.90;;;1.64;100.00;95523.44;5035422;28;19916;-82
2022/04/01 10:09:48;;;;;;;;;;;2.70;99.90;;;1.65;100.00;95530.38;5051078;28;20279;-82
2022/04/01 10:12:17;;;;;;;;;;;2.70;99.90;;;1.62;100.00;95516.63;5044117;28;20341;-83
2022/04/01 10:14:43;;;;;;;;;;;2.60;99.90;;;1.57;100.00;95531.50;5053838;28;19925;-82
2022/04/01 10:17:11;;;;;;;;;;;2.60;99.90;;;1.58;100.00;95522.78;5051790;28;19925;-82
2022/04/01 10:19:39;;;;;;;;;;;2.60;99.90;;;1.52;100.00;95509.09;5048977;28;19934;-82
2022/04/01 10:22:05;;;;;;;;;;;2.60;99.90;;;1.62;100.00;95525.25;5035702;28;19968;-82
2022/04/01 10:24:39;;;;;;;;;;;2.60;99.90;;;1.53;100.00;95515.16;5037513;28;20426;-82
2022/04/01 10:27:16;;;;;;;;;;;2.60;99.90;;;1.56;100.00;95534.97;5036740;28;19924;-82
2022/04/01 10:29:44;;;;;;;;;;;2.60;99.90;;;1.31;100.00;95518.41;5052305;28;19952;-82
2022/04/01 10:32:30;;;;;;;;;;;2.50;99.90;;;1.50;100.00;95530.84;5051283;28;19924;-82
2022/04/01 10:34:58;;;;;;;;;;;2.50;99.90;;;1.62;100.00;95537.41;5055710;28;19970;-82
2022/04/01 10:37:25;;;;;;;;;;;2.50;99.90;;;1.70;100.00;95536.22;5039920;28;19991;-82
2022/04/01 10:39:55;;;;;;;;;;;2.60;99.90;;;1.64;100.00;95548.59;5059490;28;20430;-82
2022/04/01 10:42:32;;;;;;;;;;;2.60;99.90;;;1.68;100.00;95545.84;5063679;28;20012;-82
2022/04/01 10:45:00;;;;;;;;;;;2.70;99.90;;;1.71;100.00;95544.91;5058535;28;20271;-82
2022/04/01 10:53:31;;;;;;;;;;;2.60;99.90;;;1.57;100.00;95541.88;5058890;28;19932;-82
2022/04/01 10:56:25;;;;;;;;;;;2.60;99.90;;;1.57;100.00;95549.69;5044597;28;20166;-82
2022/04/01 10:59:09;;;;;;;;;;;2.60;99.90;;;1.63;100.00;95542.53;5062930;28;19924;-82
2022/04/01 11:01:43;;;;;;;;;;;2.60;99.90;;;1.63;100.00;95554.69;5065243;28;19920;-82
2022/04/01 11:04:12;;;;;;;;;;;2.60;99.90;;;1.67;100.00;95558.88;5064352;28;19955;-82
2022/04/01 11:06:52;;;;;;;;;;;2.60;99.90;;;1.68;100.00;95555.38;5062494;28;19932;-82
2022/04/01 11:09:39;;;;;;;;;;;2.70;99.90;;;1.71;100.00;95553.53;5046847;28;20009;-83
2022/04/01 11:12:18;;;;;;;;;;;2.70;99.90;;;1.78;100.00;95554.22;5063322;28;22309;-82
2022/04/01 11:14:53;;;;;;;;;;;2.80;99.90;;;1.75;100.00;95559.50;5063213;28;19956;-82
2022/04/01 11:17:19;;;;;;;;;;;2.70;99.90;;;1.66;100.00;95539.00;5062294;28;19977;-82
2022/04/01 11:20:11;;;;;;;;;;;2.70;99.90;;;1.79;100.00;95560.25;5056197;28;19921;-82
2022/04/01 11:22:40;;;;;;;;;;;2.70;99.90;;;1.73;100.00;95570.84;5075661;28;19935;-81
2022/04/01 11:25:07;;;;;;;;;;;2.70;99.90;;;1.82;100.00;95565.34;5064355;28;19932;-82
2022/04/01 11:27:34;;;;;;;;;;;2.70;99.90;;;1.88;100.00;95567.75;5061664;28;19925;-82
2022/04/01 11:30:13;;;;;;;;;;;2.80;99.90;;;1.94;100.00;95551.97;5064517;28;19942;-82
2022/04/01 11:32:41;;;;;;;;;;;2.90;99.90;;;2.03;100.00;95563.81;5059288;28;19924;-82
2022/04/01 11:35:09;;;;;;;;;;;3.00;99.90;;;2.10;100.00;95552.31;5060486;28;22306;-83
2022/04/01 11:37:40;;;;;;;;;;;3.10;99.90;;;2.16;100.00;95569.47;5055955;28;19993;-83
2022/04/01 11:40:07;;;;;;;;;;;3.10;99.90;;;2.14;100.00;95574.72;5056256;28;19929;-82
2022/04/01 11:42:33;;;;;;;;;;;3.10;99.90;;;2.11;100.00;95585.19;5063507;28;19931;-82
2022/04/01 11:44:59;;;;;;;;;;;3.10;99.90;;;1.92;100.00;95556.38;5061819;28;19920;-82
2022/04/01 11:47:37;;;;;;;;;;;3.10;99.90;;;1.87;100.00;95584.25;5056575;28;19921;-83
2022/04/01 11:50:15;;;;;;;;;;;3.00;99.90;;;1.80;100.00;95546.38;5052945;28;19920;-82